Main page
METAR-TAF:

METAR-TAF

Airports :

Hanover, Germany

Hannover Airport

latitude: 52-28N, longitude: 009-41E, elevation: 56 m

Current weather observation

The report was made 34 minutes ago, at 16:50 UTC
Wind 8 kt from the Northwest
Temperature 20°C
Humidity 49%
Pressure 1013 hPa
Visibility 10 km or more
no clouds below 1500 m and no cumulonimbus

METAR: EDDV 261650Z 32008KT CAVOK 20/09 Q1013 NOSIG

Time: 19:24 (17:24 UTC)

Forecast

The report was made 4 hours and 45 minutes ago, at 12:39 UTC
Forecast valid from 26 at 12 UTC to 27 at 12 UTC
Wind 13 kt from the Northwest
Visibility 10 km or more
Scattered clouds at a height of 4000 ft
Becoming
from 26 at 13 UTC to 26 at 15 UTC
Wind 7 kt from the West/Northwest
Becoming
from 26 at 18 UTC to 26 at 21 UTC
Wind 3 kt from variable directions
Becoming
from 27 at 04 UTC to 27 at 06 UTC
Wind 6 kt from the East

TAF: EDDV 261239Z 2612/2712 31013KT 9999 SCT040 BECMG 2613/2615 29007KT BECMG 2618/2621 VRB03KT BECMG 2704/2706 08006KT

Weather observations and forecasts of more than 4000 airports (METAR and TAF reports).

The available stations are represented by yellow and red dots on the map.

Hover mouse over dot to see the name of the station.

Then click to see weather observations and forecasts.

To change the map : click on the green buttons with a black cross to zoom in, on the green button with a dash to zoom out, or on the green arrows for adjacent maps.


METAR-TAF: